createdAt,value
2023-01-09T00:02:41.808Z,33.47
2023-01-09T00:07:41.893Z,33.49
2023-01-09T00:12:41.218Z,33.91
2023-01-09T00:17:40.594Z,34.42
2023-01-09T00:22:39.709Z,34.84
2023-01-09T00:27:38.961Z,34.24
2023-01-09T00:32:38.257Z,34.54
2023-01-09T00:37:36.603Z,35.06
2023-01-09T00:42:36.713Z,35.06
2023-01-09T00:47:36.060Z,35.28
2023-01-09T00:52:37.230Z,34.66
2023-01-09T00:57:33.365Z,34.56
2023-01-09T01:02:32.547Z,34.88
2023-01-09T01:07:31.785Z,35.28
2023-01-09T01:12:31.067Z,34.88
2023-01-09T01:17:30.361Z,35.19
2023-01-09T01:22:29.655Z,35.18
2023-01-09T01:27:28.976Z,36.22
2023-01-09T01:32:28.250Z,37.68
2023-01-09T01:37:26.508Z,38.20
2023-01-09T01:42:28.792Z,38.18
2023-01-09T01:47:26.041Z,37.46
2023-01-09T01:52:25.341Z,36.84
2023-01-09T01:57:25.635Z,35.90
2023-01-09T02:02:26.023Z,35.60
2023-01-09T02:07:24.160Z,35.39
2023-01-09T02:12:22.282Z,35.50
2023-01-09T02:17:21.404Z,35.70
2023-01-09T02:22:20.721Z,35.50
2023-01-09T02:27:20.027Z,36.64
2023-01-09T02:32:19.358Z,36.54
2023-01-09T02:37:19.668Z,36.64
2023-01-09T02:42:17.989Z,36.44
2023-01-09T02:47:18.305Z,36.44
2023-01-09T02:52:17.580Z,36.55
2023-01-09T02:57:16.863Z,36.96
2023-01-09T03:02:16.158Z,37.48
2023-01-09T03:07:15.466Z,37.18
2023-01-09T03:12:13.760Z,36.33
2023-01-09T03:17:12.052Z,34.86
2023-01-09T03:22:13.355Z,33.74
2023-01-09T03:27:13.629Z,34.02
2023-01-09T03:32:10.933Z,33.62
2023-01-09T03:37:10.261Z,34.96
2023-01-09T03:42:09.571Z,34.76
2023-01-09T03:47:09.913Z,34.96
2023-01-09T03:52:10.254Z,34.96
2023-01-09T03:57:10.388Z,35.39
2023-01-09T04:02:06.624Z,36.20
2023-01-09T04:07:07.810Z,38.17
2023-01-09T04:12:07.161Z,35.82
2023-01-09T04:17:04.281Z,36.66
2023-01-09T04:22:04.608Z,36.87
2023-01-09T04:27:02.879Z,36.07
2023-01-09T04:32:04.051Z,36.98
2023-01-09T04:37:03.219Z,34.69
2023-01-09T04:42:00.388Z,34.14
2023-01-09T04:46:59.587Z,32.27
2023-01-09T04:52:00.793Z,30.54
2023-01-09T04:56:57.962Z,31.96
2023-01-09T05:01:57.259Z,32.27
2023-01-09T05:06:56.264Z,32.37
2023-01-09T05:11:55.458Z,32.59
2023-01-09T05:16:54.628Z,33.02
2023-01-09T05:21:53.807Z,33.04
2023-01-09T05:26:54.964Z,33.87
2023-01-09T05:31:52.141Z,34.19
2023-01-09T05:36:51.367Z,34.69
2023-01-09T05:41:50.543Z,34.27
2023-01-09T05:46:49.679Z,34.51
2023-01-09T05:51:50.894Z,35.13
2023-01-09T05:56:48.050Z,35.46
2023-01-09T06:01:46.278Z,36.29
2023-01-09T06:06:47.492Z,37.93
2023-01-09T06:11:45.676Z,37.51
2023-01-09T06:16:45.854Z,36.40
2023-01-09T06:21:45.011Z,35.70
2023-01-09T06:26:43.164Z,35.28
2023-01-09T06:31:42.339Z,33.07
2023-01-09T06:36:41.529Z,33.39
2023-01-09T06:41:40.683Z,33.18
2023-01-09T06:46:39.865Z,33.94
2023-01-09T06:51:40.037Z,34.54
2023-01-09T06:56:38.211Z,34.42
2023-01-09T07:01:37.556Z,34.42
2023-01-09T07:06:36.563Z,34.42
2023-01-09T07:11:35.736Z,34.14
2023-01-09T07:16:34.920Z,33.45
2023-01-09T07:21:34.082Z,32.54
2023-01-09T07:26:33.323Z,32.56
2023-01-09T07:31:32.601Z,32.78
2023-01-09T07:36:30.817Z,32.62
2023-01-09T07:41:33.039Z,31.68
2023-01-09T07:46:31.326Z,31.04
2023-01-09T07:51:29.501Z,30.93
2023-01-09T07:56:29.694Z,29.59
2023-01-09T08:01:28.925Z,29.50
2023-01-09T08:06:26.123Z,29.72
2023-01-09T08:11:27.321Z,30.90
2023-01-09T08:16:25.501Z,32.04
2023-01-09T08:21:24.686Z,30.68
2023-01-09T08:26:22.977Z,28.26
2023-01-09T08:31:23.242Z,28.50
2023-01-09T08:36:22.511Z,28.06
2023-01-09T08:41:20.716Z,29.05
2023-01-09T08:46:21.097Z,24.47
2023-01-09T08:51:21.151Z,24.28
2023-01-09T08:56:20.325Z,26.16
2023-01-09T09:01:18.547Z,25.91
2023-01-09T09:06:19.735Z,24.07
2023-01-09T09:11:16.959Z,23.58
2023-01-09T09:16:17.192Z,22.11
2023-01-09T09:21:16.467Z,22.74
2023-01-09T09:26:15.697Z,22.93
2023-01-09T09:31:13.958Z,23.79
2023-01-09T09:36:14.293Z,23.22
2023-01-09T09:41:13.550Z,23.25
2023-01-09T09:46:12.797Z,24.36
2023-01-09T09:51:10.995Z,24.87
2023-01-09T09:56:11.247Z,23.95
2023-01-09T10:01:11.426Z,24.16
2023-01-09T10:06:09.602Z,22.63
2023-01-09T10:11:07.797Z,22.45
2023-01-09T10:16:07.051Z,22.31
2023-01-09T10:21:06.227Z,23.57
2023-01-09T10:26:05.435Z,22.45
2023-01-09T10:31:04.658Z,22.11
2023-01-09T10:36:04.834Z,21.30
2023-01-09T10:41:02.992Z,21.15
2023-01-09T10:46:01.169Z,22.89
2023-01-09T10:51:00.476Z,20.43
2023-01-09T10:56:00.811Z,20.37
2023-01-09T11:00:59.874Z,22.11
2023-01-09T11:06:01.052Z,20.42
2023-01-09T11:10:58.236Z,21.83
2023-01-09T11:15:57.467Z,21.75
2023-01-09T11:20:57.652Z,22.16
2023-01-09T11:25:56.855Z,22.58
2023-01-09T11:30:57.061Z,23.77
2023-01-09T11:35:55.324Z,24.28
2023-01-09T11:40:53.545Z,24.07
2023-01-09T11:46:00.471Z,23.12
2023-01-09T11:50:53.018Z,21.82
2023-01-09T11:55:51.232Z,22.42
2023-01-09T12:00:51.431Z,22.36
2023-01-09T12:05:50.673Z,20.21
2023-01-09T12:10:48.867Z,19.65
2023-01-09T12:15:48.045Z,20.60
2023-01-09T12:20:48.236Z,21.56
2023-01-09T12:25:46.426Z,20.40
2023-01-09T12:30:46.608Z,21.20
2023-01-09T12:35:44.816Z,22.61
2023-01-09T12:40:43.087Z,21.59
2023-01-09T12:45:43.434Z,23.23
2023-01-09T12:50:43.677Z,23.64
2023-01-09T12:55:41.915Z,23.86
2023-01-09T13:00:41.269Z,24.27
2023-01-09T13:05:41.247Z,24.58
2023-01-09T13:10:39.503Z,25.20
2023-01-09T13:15:39.697Z,23.69
2023-01-09T13:20:37.871Z,21.97
2023-01-09T13:25:38.059Z,21.46
2023-01-09T13:30:37.208Z,20.65
2023-01-09T13:35:35.375Z,21.01
2023-01-09T13:40:35.605Z,20.00
2023-01-09T13:45:34.772Z,19.51
2023-01-09T13:50:32.923Z,19.82
2023-01-09T13:55:33.096Z,20.67
2023-01-09T14:00:31.250Z,20.57
2023-01-09T14:05:31.439Z,20.43
2023-01-09T14:10:30.619Z,20.75
2023-01-09T14:15:27.829Z,21.36
2023-01-09T14:20:29.032Z,22.07
2023-01-09T14:25:28.192Z,22.80
2023-01-09T14:30:26.402Z,20.79
2023-01-09T14:35:26.578Z,18.83
2023-01-09T14:40:26.757Z,19.03
2023-01-09T14:45:23.963Z,19.12
2023-01-09T14:50:22.170Z,18.91
2023-01-09T14:55:23.422Z,19.11
2023-01-09T15:00:21.595Z,19.10
2023-01-09T15:05:20.757Z,19.20
2023-01-09T15:10:21.991Z,18.99
2023-01-09T15:15:20.184Z,18.98
2023-01-09T15:20:19.353Z,19.08
2023-01-09T15:25:20.778Z,19.17
2023-01-09T15:30:16.782Z,19.48
2023-01-09T15:35:15.970Z,19.78
2023-01-09T15:40:15.146Z,20.07
2023-01-09T15:45:17.313Z,19.87
2023-01-09T15:50:13.465Z,19.96
2023-01-09T15:55:12.640Z,19.77
2023-01-09T16:00:12.801Z,19.96
2023-01-09T16:05:10.960Z,19.76
2023-01-09T16:10:11.146Z,20.06
2023-01-09T16:15:09.332Z,19.54
2023-01-09T16:20:09.511Z,19.65
2023-01-09T16:25:07.694Z,19.54
2023-01-09T16:30:07.896Z,20.04
2023-01-09T16:35:06.370Z,19.54
2023-01-09T16:40:04.294Z,19.96
2023-01-09T16:45:06.512Z,19.75
2023-01-09T16:50:03.734Z,19.45
2023-01-09T16:55:02.918Z,19.45
2023-01-09T17:00:02.112Z,19.14
2023-01-09T17:05:01.337Z,19.24
2023-01-09T17:10:00.577Z,19.24
2023-01-09T17:14:59.755Z,19.24
2023-01-09T17:19:58.979Z,19.24
2023-01-09T17:25:00.157Z,19.04
2023-01-09T17:29:59.322Z,19.04
2023-01-09T17:34:57.598Z,18.94
2023-01-09T17:39:56.792Z,19.13
2023-01-09T17:44:55.963Z,19.04
2023-01-09T17:49:55.147Z,20.21
2023-01-09T17:54:53.325Z,20.25
2023-01-09T17:59:54.519Z,20.36
2023-01-09T18:04:51.770Z,20.48
2023-01-09T18:09:50.999Z,21.78
2023-01-09T18:14:50.375Z,22.48
2023-01-09T18:19:49.483Z,21.98
2023-01-09T18:24:49.901Z,21.67
2023-01-09T18:29:49.187Z,21.36
2023-01-09T18:34:49.138Z,21.88
2023-01-09T18:39:46.699Z,22.58
2023-01-09T18:44:45.607Z,21.25
2023-01-09T18:49:45.858Z,21.36
2023-01-09T18:54:44.049Z,22.06
2023-01-09T18:59:43.239Z,22.17
2023-01-09T19:04:43.783Z,22.99
2023-01-09T19:09:41.629Z,22.89
2023-01-09T19:14:43.121Z,23.08
2023-01-09T19:19:40.268Z,21.83
2023-01-09T19:24:40.322Z,22.16
2023-01-09T19:29:39.513Z,22.15
2023-01-09T19:34:38.018Z,22.45
2023-01-09T19:39:37.945Z,22.37
2023-01-09T19:44:37.121Z,22.16
2023-01-09T19:49:34.323Z,21.95
2023-01-09T19:54:36.520Z,22.48
2023-01-09T19:59:36.221Z,22.05
2023-01-09T20:04:33.280Z,23.69
2023-01-09T20:09:34.348Z,24.91
2023-01-09T20:14:30.609Z,23.97
2023-01-09T20:19:30.883Z,24.88
2023-01-09T20:24:30.079Z,23.85
2023-01-09T20:29:29.291Z,21.80
2023-01-09T20:34:31.488Z,22.52
2023-01-09T20:39:27.749Z,20.47
2023-01-09T20:44:27.960Z,20.01
2023-01-09T20:49:27.368Z,21.71
2023-01-09T20:54:26.367Z,22.16
2023-01-09T20:59:25.663Z,21.39
2023-01-09T21:04:23.916Z,23.58
2023-01-09T21:09:23.047Z,25.19
2023-01-09T21:14:23.233Z,25.50
2023-01-09T21:19:22.914Z,22.39
2023-01-09T21:24:21.691Z,24.57
2023-01-09T21:29:19.859Z,24.77
2023-01-09T21:34:20.031Z,25.08
2023-01-09T21:39:18.201Z,23.41
2023-01-09T21:44:18.355Z,23.00
2023-01-09T21:49:16.536Z,23.82
2023-01-09T21:54:15.725Z,24.09
2023-01-09T21:59:15.899Z,22.05
2023-01-09T22:04:14.110Z,22.17
2023-01-09T22:09:14.338Z,21.18
2023-01-09T22:14:13.529Z,21.78
2023-01-09T22:19:11.729Z,22.05
2023-01-09T22:24:11.937Z,22.39
2023-01-09T22:29:10.101Z,22.19
2023-01-09T22:34:08.342Z,22.13
2023-01-09T22:39:10.484Z,23.04
2023-01-09T22:44:08.654Z,22.67
2023-01-09T22:49:06.849Z,22.58
2023-01-09T22:54:06.036Z,22.91
2023-01-09T22:59:05.200Z,23.18
2023-01-09T23:04:04.366Z,24.16
2023-01-09T23:09:03.545Z,23.99
2023-01-09T23:14:03.731Z,25.51
2023-01-09T23:19:01.896Z,25.36
2023-01-09T23:24:02.094Z,26.39
2023-01-09T23:29:01.283Z,27.59
2023-01-09T23:33:59.471Z,27.71
2023-01-09T23:38:58.719Z,27.62
2023-01-09T23:43:57.899Z,28.03
2023-01-09T23:48:57.119Z,27.85
2023-01-09T23:53:56.316Z,28.59
2023-01-09T23:58:55.524Z,29.69
